Pleasanton, CA

2:06 AM PDT on November 01, 2014 (GMT -0700)
Mission Hills Park | Change Station
CLOSE
Current Station
Personal Weather Station
Location: Pleasanton, CA
Elevation: 348 ft
Nearby Weather Stations

Elev 348 ft 37.65 °N, 121.87 °W | Updated 3 minutes ago

Overcast
Overcast
54.9 °F
Feels Like 54.9 °F
N
3.0
Wind Variable Wind from South
Gusts 5.0 mph

Today
High -- | Low -- °F
--% Chance of Precip.
Yesterday
High -- | Low -- °F
Precip. -- in
7:32 AM 6:08 PM
Waxing Gibbous, 64% visible
Pressure 29.74 in
Visibility 10.0 miles
Clouds Scattered Clouds 10000 ft
Dew Point 54 °F
Humidity 97%
Rainfall 0.00 in
Snow Depth Not available.
UV 0 out of 12
Pollen .50 out of 12
Air Quality Not available.
Flu Activity Not available.
METAR KLVK 010853Z AUTO 23007KT 10SM SCT100 13/11 A2975 RMK AO2 SLP071 T01330106 55003

More Conditions Fewer Conditions

Pressure 29.74 in
Visibility 10.0 miles
Clouds Scattered Clouds 10000 ft
Dew Point 54 °F
Humidity 97%
Rainfall 0.00 in
Snow Depth Not available.
UV 0 out of 12
Pollen .50 out of 12
Air Quality Not available.
Flu Activity Not available.
METAR KLVK 010853Z AUTO 23007KT 10SM SCT100 13/11 A2975 RMK AO2 SLP071 T01330106 55003

More Conditions Fewer Conditions

10-Day Weather Forecast

Almanac

Astronomy

Nov. 01, 2014 Rise Set
Actual Time
Civil Twilight
Nautical Twilight
Astronomical Twilight
Moon
Length of Visible Light
Length of Day
Tomorrow will be .
, % of the Moon is Illuminated

Today's Extremes

State Highs State Lows

Community

WunderPhotos

Upload Photos

1,766,871 photos uploaded!

WunderBlogs® & News

Nearby

Air Quality

  Air Quality AQ Index Pollutant
Not available.

Snow Depth

Station Depth Elevation

Earthquake Activity

City Distance Mag. Time & Date
Minimum magnitude displayed is 2.5.

Coastal Water Temperatures

Place Temperature

Nearby Weather Stations